Time;durP1;ratioP1;P1;durP2;ratioP2;P2;SDS_P1;SDS_P2;PMS_P1;PMS_P2;Temp;Humidity;BMP_temperature;BMP_pressure;BME280_temperature;BME280_humidity;BME280_pressure;Samples;Min_cycle;Max_cycle;Signal;HPM_P1;HPM_P2
2024/01/12 00:00:32;;;;;;;;;29.75;25.00;;;;;;;;5032849;28;28453;-75
2024/01/12 00:02:57;;;;;;;;;30.00;21.50;;;;;;;;5040392;28;28546;-75
2024/01/12 00:05:22;;;;;;;;;30.50;28.00;;;;;;;;5036411;28;28540;-75
2024/01/12 00:07:48;;;;;;;;;25.25;22.25;;;;;;;;5049505;28;28750;-75
2024/01/12 00:10:13;;;;;;;;;26.25;23.75;;;;;;;;5033597;28;28822;-77
2024/01/12 00:12:39;;;;;;;;;26.25;22.50;;;;;;;;5036356;28;29522;-76
2024/01/12 00:15:05;;;;;;;;;26.50;21.25;;;;;;;;5032069;28;28659;-74
2024/01/12 00:17:30;;;;;;;;;26.25;23.00;;;;;;;;5026756;28;28536;-75
2024/01/12 00:19:56;;;;;;;;;30.75;25.25;;;;;;;;5027873;28;28990;-76
2024/01/12 00:22:21;;;;;;;;;31.00;22.75;;;;;;;;5038199;28;28619;-75
2024/01/12 00:24:46;;;;;;;;;15.25;11.75;;;;;;;;5029711;28;28286;-75
2024/01/12 00:27:12;;;;;;;;;31.50;25.50;;;;;;;;5040593;28;29798;-75
2024/01/12 00:29:37;;;;;;;;;27.00;22.00;;;;;;;;5025752;28;28532;-75
2024/01/12 00:32:05;;;;;;;;;25.50;20.50;;;;;;;;5039332;28;28491;-76
2024/01/12 00:34:30;;;;;;;;;26.00;20.75;;;;;;;;5045757;28;28855;-76
2024/01/12 00:36:55;;;;;;;;;20.75;20.50;;;;;;;;5031371;28;29216;-75
2024/01/12 00:39:20;;;;;;;;;19.75;18.00;;;;;;;;5043857;28;29816;-75
2024/01/12 00:41:47;;;;;;;;;25.50;21.50;;;;;;;;5040936;28;28869;-75
2024/01/12 00:44:12;;;;;;;;;23.50;20.25;;;;;;;;5030923;28;28550;-75
2024/01/12 00:46:38;;;;;;;;;24.25;21.25;;;;;;;;5038967;28;28672;-77
2024/01/12 00:49:03;;;;;;;;;20.50;16.00;;;;;;;;5033909;28;29566;-76
2024/01/12 00:51:28;;;;;;;;;21.50;19.25;;;;;;;;5042259;28;28453;-76
2024/01/12 00:53:53;;;;;;;;;21.00;20.50;;;;;;;;5034350;28;28643;-76
2024/01/12 00:56:19;;;;;;;;;23.25;20.50;;;;;;;;5046829;28;28453;-76
2024/01/12 00:58:44;;;;;;;;;24.75;23.50;;;;;;;;5048325;28;29560;-76
2024/01/12 01:01:09;;;;;;;;;26.00;16.50;;;;;;;;5040695;28;28469;-75
2024/01/12 01:03:36;;;;;;;;;25.00;21.00;;;;;;;;5027120;28;29017;-77
2024/01/12 01:06:01;;;;;;;;;17.00;12.50;;;;;;;;5039261;28;28868;-75
2024/01/12 01:08:27;;;;;;;;;22.00;15.00;;;;;;;;5028125;28;29050;-76
2024/01/12 01:10:52;;;;;;;;;17.00;15.75;;;;;;;;5034674;28;28901;-78
2024/01/12 01:13:17;;;;;;;;;19.25;14.75;;;;;;;;5037962;28;28790;-73
2024/01/12 01:15:42;;;;;;;;;16.50;15.50;;;;;;;;5033748;28;28509;-76
2024/01/12 01:18:10;;;;;;;;;16.50;15.00;;;;;;;;5045362;28;28807;-78
2024/01/12 01:20:35;;;;;;;;;19.75;17.50;;;;;;;;5039027;28;28486;-76
2024/01/12 01:23:01;;;;;;;;;15.33;12.00;;;;;;;;5046597;28;28480;-75
2024/01/12 01:25:26;;;;;;;;;15.75;15.75;;;;;;;;5031222;28;29140;-78
2024/01/12 01:27:51;;;;;;;;;18.25;13.75;;;;;;;;5032479;28;28735;-77
2024/01/12 01:30:16;;;;;;;;;18.75;14.25;;;;;;;;5028514;28;28579;-76
2024/01/12 01:32:42;;;;;;;;;17.00;13.50;;;;;;;;5023294;28;28882;-75
2024/01/12 01:35:07;;;;;;;;;16.00;12.75;;;;;;;;5046163;28;28468;-76
2024/01/12 01:37:32;;;;;;;;;16.75;14.00;;;;;;;;5033032;28;28839;-75
2024/01/12 01:39:58;;;;;;;;;13.33;11.00;;;;;;;;5044243;28;28579;-75
2024/01/12 01:42:23;;;;;;;;;17.50;12.50;;;;;;;;5033758;28;28557;-76
2024/01/12 01:44:48;;;;;;;;;14.00;11.00;;;;;;;;5039199;28;28834;-75
2024/01/12 01:47:14;;;;;;;;;15.00;10.25;;;;;;;;5024834;28;29185;-75
2024/01/12 01:49:40;;;;;;;;;11.25;11.25;;;;;;;;5015351;28;28471;-75
2024/01/12 01:52:08;;;;;;;;;7.00;5.50;;;;;;;;5021476;28;28620;-75
2024/01/12 01:54:34;;;;;;;;;13.00;11.50;;;;;;;;5031734;28;29207;-74
2024/01/12 01:56:59;;;;;;;;;14.50;11.00;;;;;;;;5033304;28;28488;-75
2024/01/12 01:59:25;;;;;;;;;18.00;13.33;;;;;;;;5047276;28;28540;-75
2024/01/12 02:01:50;;;;;;;;;14.00;14.00;;;;;;;;5040579;28;28541;-75
2024/01/12 02:04:16;;;;;;;;;17.75;14.00;;;;;;;;5040415;28;28643;-75
2024/01/12 02:06:41;;;;;;;;;15.75;10.50;;;;;;;;5042932;28;28492;-75
2024/01/12 02:09:07;;;;;;;;;18.00;12.00;;;;;;;;5048338;28;28467;-75
2024/01/12 02:11:33;;;;;;;;;17.00;15.33;;;;;;;;5047785;28;28838;-75
2024/01/12 02:13:58;;;;;;;;;17.75;16.75;;;;;;;;5040321;28;29634;-76
2024/01/12 02:16:23;;;;;;;;;18.33;13.33;;;;;;;;5020897;28;28749;-75
2024/01/12 02:18:48;;;;;;;;;10.33;8.67;;;;;;;;5032323;28;28880;-74
2024/01/12 02:21:14;;;;;;;;;18.00;13.00;;;;;;;;5029035;28;28748;-75
2024/01/12 02:23:39;;;;;;;;;21.33;14.33;;;;;;;;5014222;28;29320;-76
2024/01/12 02:26:04;;;;;;;;;12.00;12.00;;;;;;;;5030639;28;28469;-75
2024/01/12 02:28:30;;;;;;;;;20.33;14.67;;;;;;;;5031337;28;28486;-75
2024/01/12 02:30:55;;;;;;;;;16.33;12.33;;;;;;;;5043771;28;28739;-75
2024/01/12 02:33:21;;;;;;;;;16.67;16.00;;;;;;;;5047006;28;28500;-76
2024/01/12 02:35:46;;;;;;;;;21.75;18.75;;;;;;;;5039687;28;28327;-76
2024/01/12 02:38:11;;;;;;;;;25.25;21.25;;;;;;;;5031517;28;28548;-75
2024/01/12 02:40:37;;;;;;;;;26.75;22.25;;;;;;;;5038946;28;28485;-73
2024/01/12 02:43:02;;;;;;;;;21.25;18.50;;;;;;;;5050390;28;28702;-76
2024/01/12 02:45:28;;;;;;;;;32.75;21.75;;;;;;;;5032734;28;28555;-77
2024/01/12 02:47:53;;;;;;;;;20.00;20.00;;;;;;;;5046564;28;28830;-78
2024/01/12 02:50:18;;;;;;;;;28.25;20.50;;;;;;;;5047120;28;28643;-77
2024/01/12 02:52:44;;;;;;;;;20.75;18.75;;;;;;;;5039868;28;28560;-76
2024/01/12 02:55:09;;;;;;;;;20.75;15.00;;;;;;;;5036295;28;28590;-77
2024/01/12 02:57:34;;;;;;;;;17.67;16.33;;;;;;;;5035212;28;28533;-74
2024/01/12 02:59:59;;;;;;;;;20.00;18.00;;;;;;;;5038522;28;29128;-76
2024/01/12 03:02:24;;;;;;;;;23.00;21.67;;;;;;;;5031969;28;28579;-74
2024/01/12 03:04:50;;;;;;;;;19.33;15.00;;;;;;;;5032578;28;29774;-75
2024/01/12 03:07:15;;;;;;;;;22.00;17.67;;;;;;;;5031078;28;28856;-75
2024/01/12 03:09:40;;;;;;;;;21.00;19.00;;;;;;;;5017325;28;28722;-78
2024/01/12 03:12:06;;;;;;;;;28.25;22.00;;;;;;;;5040098;28;30035;-76
2024/01/12 03:14:31;;;;;;;;;24.00;19.33;;;;;;;;5032579;28;29066;-77
2024/01/12 03:16:56;;;;;;;;;20.67;18.67;;;;;;;;5026224;28;28359;-76
2024/01/12 03:19:21;;;;;;;;;27.00;21.00;;;;;;;;5027574;28;28898;-77
2024/01/12 03:21:46;;;;;;;;;25.33;21.00;;;;;;;;5031771;28;28777;-78
2024/01/12 03:24:12;;;;;;;;;20.33;16.00;;;;;;;;5046505;28;29805;-77
2024/01/12 03:26:37;;;;;;;;;23.67;20.67;;;;;;;;5031285;28;28818;-76
2024/01/12 03:29:03;;;;;;;;;27.33;22.33;;;;;;;;5038615;28;28499;-77
2024/01/12 03:31:28;;;;;;;;;22.00;19.67;;;;;;;;5041236;28;28522;-77
2024/01/12 03:33:53;;;;;;;;;25.67;18.00;;;;;;;;5033557;28;28563;-76
2024/01/12 03:36:19;;;;;;;;;29.33;23.67;;;;;;;;5042468;28;28635;-77
2024/01/12 03:38:44;;;;;;;;;26.00;21.67;;;;;;;;5034848;28;28481;-76
2024/01/12 03:41:09;;;;;;;;;21.00;19.33;;;;;;;;5039526;28;29048;-76
2024/01/12 03:43:34;;;;;;;;;26.67;21.33;;;;;;;;5035440;28;28595;-75
2024/01/12 03:46:00;;;;;;;;;27.00;21.33;;;;;;;;5044402;28;28682;-75
2024/01/12 03:48:25;;;;;;;;;26.33;22.00;;;;;;;;5028605;28;28525;-75
2024/01/12 03:50:50;;;;;;;;;30.33;25.33;;;;;;;;5042525;28;28604;-75
2024/01/12 03:53:15;;;;;;;;;33.67;24.67;;;;;;;;5043603;28;29033;-75
2024/01/12 03:55:40;;;;;;;;;32.00;26.00;;;;;;;;5036448;28;28546;-75
2024/01/12 03:58:06;;;;;;;;;29.67;23.33;;;;;;;;5049378;28;28567;-75
2024/01/12 04:00:31;;;;;;;;;30.75;27.75;;;;;;;;5035382;28;28897;-76
2024/01/12 04:02:56;;;;;;;;;27.67;22.00;;;;;;;;5039579;28;29723;-76
2024/01/12 04:05:21;;;;;;;;;32.25;24.50;;;;;;;;5037794;28;28837;-76
2024/01/12 04:07:47;;;;;;;;;33.25;29.00;;;;;;;;5045179;28;28615;-77
2024/01/12 04:10:12;;;;;;;;;27.50;22.75;;;;;;;;5034188;28;28537;-77
2024/01/12 04:12:38;;;;;;;;;31.33;26.00;;;;;;;;5032970;28;29653;-76
2024/01/12 04:15:04;;;;;;;;;35.25;28.00;;;;;;;;5046393;28;28984;-77
2024/01/12 04:17:29;;;;;;;;;27.50;23.25;;;;;;;;5042605;28;29129;-78
2024/01/12 04:19:54;;;;;;;;;26.00;21.00;;;;;;;;5041621;28;28919;-77
2024/01/12 04:22:19;;;;;;;;;29.25;25.75;;;;;;;;5046113;28;28639;-76
2024/01/12 04:24:44;;;;;;;;;36.00;29.50;;;;;;;;5045810;28;28500;-76
2024/01/12 04:27:10;;;;;;;;;32.25;27.50;;;;;;;;5038250;28;28602;-77
2024/01/12 04:29:35;;;;;;;;;28.75;27.75;;;;;;;;5043015;28;28448;-78
2024/01/12 04:32:00;;;;;;;;;35.25;30.25;;;;;;;;5031217;28;29849;-76
2024/01/12 04:34:25;;;;;;;;;21.25;19.00;;;;;;;;5039120;28;28441;-77
2024/01/12 04:36:51;;;;;;;;;46.50;30.75;;;;;;;;5027958;28;28823;-78
2024/01/12 04:39:16;;;;;;;;;39.50;28.50;;;;;;;;5028089;28;29539;-77
2024/01/12 04:41:42;;;;;;;;;36.00;28.75;;;;;;;;5040497;28;29142;-77
2024/01/12 04:44:07;;;;;;;;;37.75;31.25;;;;;;;;5031492;28;28402;-77
2024/01/12 04:46:32;;;;;;;;;31.00;27.25;;;;;;;;5038044;28;28453;-77
2024/01/12 04:48:57;;;;;;;;;41.25;32.50;;;;;;;;5023522;28;28608;-77
2024/01/12 04:51:23;;;;;;;;;32.00;25.75;;;;;;;;5047651;28;30303;-76
2024/01/12 04:53:48;;;;;;;;;32.25;26.75;;;;;;;;5041607;28;28504;-76
2024/01/12 04:56:13;;;;;;;;;19.00;16.25;;;;;;;;5044200;28;28449;-76
2024/01/12 04:58:40;;;;;;;;;24.25;23.25;;;;;;;;5029176;28;28686;-74
2024/01/12 05:01:05;;;;;;;;;35.75;25.00;;;;;;;;5025647;28;31142;-75
2024/01/12 05:03:30;;;;;;;;;29.75;22.50;;;;;;;;5034130;28;28618;-75
2024/01/12 05:05:56;;;;;;;;;30.50;26.00;;;;;;;;5024815;28;28797;-76
2024/01/12 05:08:21;;;;;;;;;37.75;31.00;;;;;;;;5033056;28;29742;-76
2024/01/12 05:10:46;;;;;;;;;33.50;25.75;;;;;;;;5041479;28;28456;-77
2024/01/12 05:13:11;;;;;;;;;33.25;25.50;;;;;;;;5044918;28;28807;-76
2024/01/12 05:15:36;;;;;;;;;48.50;38.50;;;;;;;;5033709;28;29001;-77
2024/01/12 05:18:02;;;;;;;;;42.25;34.00;;;;;;;;5045317;28;28574;-76
2024/01/12 05:20:28;;;;;;;;;34.50;30.50;;;;;;;;5039298;28;28556;-76
2024/01/12 05:22:53;;;;;;;;;36.00;25.00;;;;;;;;5048208;28;28457;-76
2024/01/12 05:25:18;;;;;;;;;30.00;25.25;;;;;;;;5036818;28;28430;-75
2024/01/12 05:27:43;;;;;;;;;32.50;24.25;;;;;;;;5026529;28;28774;-75
2024/01/12 05:30:09;;;;;;;;;39.00;27.50;;;;;;;;5027795;28;29099;-75
2024/01/12 05:32:34;;;;;;;;;72.50;52.25;;;;;;;;5026721;28;28363;-79
2024/01/12 05:35:00;;;;;;;;;24.00;22.75;;;;;;;;5039968;28;29029;-76
2024/01/12 05:37:25;;;;;;;;;36.50;30.25;;;;;;;;5032267;28;28827;-77
2024/01/12 05:39:50;;;;;;;;;34.25;27.50;;;;;;;;5030258;28;30636;-77
2024/01/12 05:42:15;;;;;;;;;30.75;27.00;;;;;;;;5040180;28;28486;-78
2024/01/12 05:44:41;;;;;;;;;25.25;25.00;;;;;;;;5025253;28;28792;-75
2024/01/12 05:47:06;;;;;;;;;32.50;27.75;;;;;;;;5026483;28;29024;-76
2024/01/12 05:49:32;;;;;;;;;33.75;26.50;;;;;;;;5029197;28;28414;-76
2024/01/12 05:51:57;;;;;;;;;27.00;23.25;;;;;;;;5037121;28;28770;-78
2024/01/12 05:54:22;;;;;;;;;31.25;26.25;;;;;;;;5038005;28;28429;-77
2024/01/12 05:56:47;;;;;;;;;33.25;31.00;;;;;;;;5033869;28;28930;-76
2024/01/12 05:59:12;;;;;;;;;30.33;21.67;;;;;;;;5046419;28;28519;-77
2024/01/12 06:01:38;;;;;;;;;31.25;23.00;;;;;;;;5032570;28;28656;-76
2024/01/12 06:04:03;;;;;;;;;34.50;25.75;;;;;;;;5032974;28;28604;-76
2024/01/12 06:06:28;;;;;;;;;33.25;27.50;;;;;;;;5033091;28;28912;-77
2024/01/12 06:08:54;;;;;;;;;32.50;24.75;;;;;;;;5039712;28;28480;-77
2024/01/12 06:11:19;;;;;;;;;30.50;27.25;;;;;;;;5047586;28;28682;-75
2024/01/12 06:13:45;;;;;;;;;28.75;26.25;;;;;;;;5036716;28;28474;-78
2024/01/12 06:16:10;;;;;;;;;30.00;24.50;;;;;;;;5021169;28;30074;-77
2024/01/12 06:18:37;;;;;;;;;34.00;28.50;;;;;;;;5021723;28;28499;-76
2024/01/12 06:21:02;;;;;;;;;32.25;29.75;;;;;;;;5016087;28;28487;-75
2024/01/12 06:23:27;;;;;;;;;37.50;30.75;;;;;;;;5024250;28;29622;-76
2024/01/12 06:25:53;;;;;;;;;40.50;28.00;;;;;;;;5035458;28;29357;-73
2024/01/12 06:28:18;;;;;;;;;37.50;31.75;;;;;;;;5031130;28;28599;-74
2024/01/12 06:30:44;;;;;;;;;36.25;29.25;;;;;;;;5027372;28;28928;-72
2024/01/12 06:33:09;;;;;;;;;47.50;35.75;;;;;;;;5045341;28;28562;-73
2024/01/12 06:35:35;;;;;;;;;24.75;23.50;;;;;;;;5027424;28;28592;-73
2024/01/12 06:38:00;;;;;;;;;31.50;28.25;;;;;;;;5034557;28;28624;-73
2024/01/12 06:40:25;;;;;;;;;30.50;27.00;;;;;;;;5036863;28;28568;-73
2024/01/12 06:42:51;;;;;;;;;39.25;32.75;;;;;;;;5039835;28;28572;-74
2024/01/12 06:45:16;;;;;;;;;39.75;33.75;;;;;;;;5032017;28;29219;-73
2024/01/12 06:47:43;;;;;;;;;43.75;33.75;;;;;;;;5040854;28;28445;-73
2024/01/12 06:50:08;;;;;;;;;37.75;30.75;;;;;;;;5044821;28;28563;-73
2024/01/12 06:52:33;;;;;;;;;36.25;33.25;;;;;;;;5031373;28;28862;-72
2024/01/12 06:54:58;;;;;;;;;41.50;33.50;;;;;;;;5038098;28;28762;-72
2024/01/12 06:57:24;;;;;;;;;50.25;39.00;;;;;;;;5046048;28;28556;-71
2024/01/12 06:59:49;;;;;;;;;38.00;31.50;;;;;;;;5046433;28;28442;-72
2024/01/12 07:02:15;;;;;;;;;46.00;36.00;;;;;;;;5045316;28;28477;-73
2024/01/12 07:04:40;;;;;;;;;45.25;35.00;;;;;;;;5046346;28;28463;-73
2024/01/12 07:07:05;;;;;;;;;50.25;36.75;;;;;;;;5034091;28;29682;-69
2024/01/12 07:09:30;;;;;;;;;50.25;36.75;;;;;;;;5040382;28;28923;-72
2024/01/12 07:11:56;;;;;;;;;48.25;36.00;;;;;;;;5046606;28;28829;-73
2024/01/12 07:14:21;;;;;;;;;50.50;39.00;;;;;;;;5028938;28;28462;-71
2024/01/12 07:16:46;;;;;;;;;36.75;31.75;;;;;;;;5036440;28;28686;-73
2024/01/12 07:19:12;;;;;;;;;47.50;38.00;;;;;;;;5046971;28;28872;-74
2024/01/12 07:21:39;;;;;;;;;44.25;36.25;;;;;;;;5049467;28;28547;-72
2024/01/12 07:24:08;;;;;;;;;52.25;39.75;;;;;;;;5045335;28;28973;-74
2024/01/12 07:26:33;;;;;;;;;49.00;37.50;;;;;;;;5045969;28;28713;-74
2024/01/12 07:28:59;;;;;;;;;36.75;30.50;;;;;;;;5045470;28;29985;-75
2024/01/12 07:31:24;;;;;;;;;43.75;32.50;;;;;;;;5050352;28;28584;-72
2024/01/12 07:33:49;;;;;;;;;40.50;33.00;;;;;;;;5050157;28;28478;-71
2024/01/12 07:36:15;;;;;;;;;39.00;35.50;;;;;;;;5047407;28;30138;-71
2024/01/12 07:38:40;;;;;;;;;28.75;27.00;;;;;;;;5042312;28;28751;-71
2024/01/12 07:41:05;;;;;;;;;44.00;31.75;;;;;;;;5050017;28;28623;-72
2024/01/12 07:43:30;;;;;;;;;37.75;27.50;;;;;;;;5041538;28;28949;-73
2024/01/12 07:45:56;;;;;;;;;33.50;30.00;;;;;;;;5047359;28;28442;-72
2024/01/12 07:48:21;;;;;;;;;41.50;33.25;;;;;;;;5051798;28;28557;-70
2024/01/12 07:50:46;;;;;;;;;36.25;28.00;;;;;;;;5042658;28;28749;-72
2024/01/12 07:53:11;;;;;;;;;37.00;29.00;;;;;;;;5041330;28;29236;-72
2024/01/12 07:55:37;;;;;;;;;35.25;30.50;;;;;;;;5033211;28;28862;-69
2024/01/12 07:58:03;;;;;;;;;35.75;29.75;;;;;;;;5044301;28;28638;-71
2024/01/12 08:00:28;;;;;;;;;33.50;25.00;;;;;;;;5041070;28;28580;-79
2024/01/12 08:02:53;;;;;;;;;34.00;30.00;;;;;;;;5050654;28;29010;-79
2024/01/12 08:05:19;;;;;;;;;38.25;29.25;;;;;;;;5035472;28;28454;-79
2024/01/12 08:07:44;;;;;;;;;37.50;32.00;;;;;;;;5033827;28;28920;-77
2024/01/12 08:10:10;;;;;;;;;34.00;31.75;;;;;;;;5045524;28;28550;-79
2024/01/12 08:12:35;;;;;;;;;35.50;27.00;;;;;;;;5048246;28;29535;-81
2024/01/12 08:15:01;;;;;;;;;40.75;36.75;;;;;;;;5050754;28;28521;-79
2024/01/12 08:17:26;;;;;;;;;41.50;35.25;;;;;;;;5049017;28;28441;-81
2024/01/12 08:19:51;;;;;;;;;44.50;31.75;;;;;;;;5051005;28;28437;-80
2024/01/12 08:22:16;;;;;;;;;22.00;16.75;;;;;;;;5035023;28;28442;-80
2024/01/12 08:24:42;;;;;;;;;24.00;20.50;;;;;;;;5028565;28;28874;-79
2024/01/12 08:27:07;;;;;;;;;30.00;27.25;;;;;;;;5053573;28;29127;-80
2024/01/12 08:29:32;;;;;;;;;28.75;25.25;;;;;;;;5044118;28;28603;-80
2024/01/12 08:31:58;;;;;;;;;26.00;21.75;;;;;;;;5035149;28;28435;-80
2024/01/12 08:34:24;;;;;;;;;34.00;25.00;;;;;;;;5023110;28;28738;-79
2024/01/12 08:36:49;;;;;;;;;37.25;28.75;;;;;;;;5040328;28;28502;-77
2024/01/12 08:39:14;;;;;;;;;29.25;27.00;;;;;;;;5047005;28;28627;-76
2024/01/12 08:41:40;;;;;;;;;32.25;27.75;;;;;;;;5047989;28;28757;-79
2024/01/12 08:44:05;;;;;;;;;33.25;25.00;;;;;;;;5029147;28;28955;-81
2024/01/12 08:46:31;;;;;;;;;30.25;21.50;;;;;;;;5030971;28;28473;-81
2024/01/12 08:48:58;;;;;;;;;33.50;28.75;;;;;;;;5047765;28;28406;-81
2024/01/12 08:51:23;;;;;;;;;34.50;28.75;;;;;;;;5040409;28;29300;-82
2024/01/12 08:53:49;;;;;;;;;36.50;24.50;;;;;;;;5028848;28;28899;-80
2024/01/12 08:56:14;;;;;;;;;32.50;24.75;;;;;;;;5037367;28;28497;-80
2024/01/12 08:58:39;;;;;;;;;23.25;20.25;;;;;;;;5038155;28;28607;-80
2024/01/12 09:01:04;;;;;;;;;34.00;26.50;;;;;;;;5026078;28;29255;-78
2024/01/12 09:03:30;;;;;;;;;22.25;18.25;;;;;;;;5030448;28;28492;-79
2024/01/12 09:05:55;;;;;;;;;13.25;12.50;;;;;;;;5032121;28;28557;-78
2024/01/12 09:08:20;;;;;;;;;30.25;27.75;;;;;;;;5031118;28;28745;-80
2024/01/12 09:10:45;;;;;;;;;27.25;21.25;;;;;;;;5037294;28;28520;-79
2024/01/12 09:13:11;;;;;;;;;35.50;29.00;;;;;;;;5041329;28;28820;-78
2024/01/12 09:15:37;;;;;;;;;34.75;20.75;;;;;;;;5046270;28;28381;-79
2024/01/12 09:18:03;;;;;;;;;29.75;24.75;;;;;;;;5028950;28;28564;-79
2024/01/12 09:20:29;;;;;;;;;36.00;32.00;;;;;;;;5034566;28;29564;-79
2024/01/12 09:22:54;;;;;;;;;32.75;27.25;;;;;;;;5034204;28;29047;-79
2024/01/12 09:25:19;;;;;;;;;29.25;26.25;;;;;;;;5031695;28;28481;-79
2024/01/12 09:27:44;;;;;;;;;36.50;27.75;;;;;;;;5037156;28;28502;-79
2024/01/12 09:30:10;;;;;;;;;42.50;32.75;;;;;;;;5028432;28;28397;-79
2024/01/12 09:32:35;;;;;;;;;29.75;28.50;;;;;;;;5027500;28;29329;-79
2024/01/12 09:35:00;;;;;;;;;37.50;30.00;;;;;;;;5031657;28;28696;-79
2024/01/12 09:37:25;;;;;;;;;36.00;31.50;;;;;;;;5031749;28;28521;-80
2024/01/12 09:39:51;;;;;;;;;38.75;33.75;;;;;;;;5044108;28;29779;-79
2024/01/12 09:42:17;;;;;;;;;35.00;29.50;;;;;;;;5046855;28;28670;-78
2024/01/12 09:44:45;;;;;;;;;35.75;30.75;;;;;;;;5044229;28;28230;-79
2024/01/12 09:47:12;;;;;;;;;39.50;33.75;;;;;;;;5041387;28;28918;-79
2024/01/12 09:49:37;;;;;;;;;47.50;34.25;;;;;;;;5027007;28;28439;-77
2024/01/12 09:52:03;;;;;;;;;34.75;33.75;;;;;;;;5024997;28;28877;-78
2024/01/12 09:54:28;;;;;;;;;40.25;36.00;;;;;;;;5026911;28;28445;-78
2024/01/12 09:56:55;;;;;;;;;37.50;34.00;;;;;;;;5028780;28;28461;-78
2024/01/12 09:59:21;;;;;;;;;46.25;38.25;;;;;;;;5028199;28;28617;-80
2024/01/12 10:01:47;;;;;;;;;46.25;35.75;;;;;;;;5029141;28;28951;-80
2024/01/12 10:04:12;;;;;;;;;50.75;36.75;;;;;;;;5029265;28;28469;-79
2024/01/12 10:06:37;;;;;;;;;38.75;28.00;;;;;;;;5030131;28;28509;-80
2024/01/12 10:09:03;;;;;;;;;50.50;38.00;;;;;;;;5025188;28;28497;-79
2024/01/12 10:11:29;;;;;;;;;47.00;37.25;;;;;;;;5030859;28;29398;-79
2024/01/12 10:13:54;;;;;;;;;49.25;35.50;;;;;;;;5027440;28;29062;-78
2024/01/12 10:16:20;;;;;;;;;42.00;36.75;;;;;;;;5028284;28;28825;-79
2024/01/12 10:18:46;;;;;;;;;46.25;36.00;;;;;;;;5039084;28;29126;-78
2024/01/12 10:21:13;;;;;;;;;36.75;32.00;;;;;;;;5023501;28;28765;-79
2024/01/12 10:23:39;;;;;;;;;32.00;32.00;;;;;;;;5035098;28;28521;-78
2024/01/12 10:26:05;;;;;;;;;48.75;37.75;;;;;;;;5038989;28;28422;-79
2024/01/12 10:28:30;;;;;;;;;49.75;36.50;;;;;;;;5035375;28;28470;-80
2024/01/12 10:30:56;;;;;;;;;53.50;38.50;;;;;;;;5036955;28;29744;-79
2024/01/12 10:33:22;;;;;;;;;55.75;41.50;;;;;;;;5036646;28;28822;-80
2024/01/12 10:35:51;;;;;;;;;30.00;24.25;;;;;;;;5037391;28;28741;-79
2024/01/12 10:38:17;;;;;;;;;49.00;38.50;;;;;;;;5036017;28;28875;-79
2024/01/12 10:40:43;;;;;;;;;54.50;41.00;;;;;;;;5030760;28;29307;-80
2024/01/12 10:43:11;;;;;;;;;48.50;40.50;;;;;;;;5044946;28;28457;-80
2024/01/12 10:45:38;;;;;;;;;42.75;34.75;;;;;;;;5036580;28;28470;-80
2024/01/12 10:48:04;;;;;;;;;40.50;34.00;;;;;;;;5034904;28;28509;-81
2024/01/12 10:50:35;;;;;;;;;40.75;34.75;;;;;;;;5035232;28;28494;-80
2024/01/12 10:53:11;;;;;;;;;41.25;35.75;;;;;;;;5042528;28;28620;-80
2024/01/12 10:55:37;;;;;;;;;37.00;34.50;;;;;;;;5054523;28;28089;-79
2024/01/12 10:58:03;;;;;;;;;34.75;28.75;;;;;;;;5060945;28;28638;-79
2024/01/12 11:00:31;;;;;;;;;48.25;38.00;;;;;;;;5056992;28;28346;-80
2024/01/12 11:02:57;;;;;;;;;48.00;38.25;;;;;;;;5040973;28;28631;-79
2024/01/12 11:05:24;;;;;;;;;40.75;33.50;;;;;;;;5039276;28;28466;-80
2024/01/12 11:07:50;;;;;;;;;42.50;36.25;;;;;;;;5056823;28;28507;-79
2024/01/12 11:10:16;;;;;;;;;49.00;37.00;;;;;;;;5056047;28;28248;-80
2024/01/12 11:12:42;;;;;;;;;40.50;34.50;;;;;;;;5037994;28;28356;-80
2024/01/12 11:15:07;;;;;;;;;33.00;31.25;;;;;;;;5049454;28;27913;-79
2024/01/12 11:17:34;;;;;;;;;38.50;32.50;;;;;;;;5049622;28;29519;-80
2024/01/12 11:20:32;;;;;;;;;40.25;34.00;;;;;;;;5054650;28;28275;-81
2024/01/12 11:22:58;;;;;;;;;42.25;34.50;;;;;;;;5026987;28;27936;-81
2024/01/12 11:25:23;;;;;;;;;48.75;36.00;;;;;;;;5052624;28;28509;-81
2024/01/12 11:27:49;;;;;;;;;48.50;36.00;;;;;;;;5018483;28;28532;-80
2024/01/12 11:30:17;;;;;;;;;32.75;29.00;;;;;;;;5048388;28;28530;-80
2024/01/12 11:32:42;;;;;;;;;51.00;37.75;;;;;;;;5037411;28;28556;-80
2024/01/12 11:35:18;;;;;;;;;51.25;35.50;;;;;;;;5033210;28;28129;-80
2024/01/12 11:37:44;;;;;;;;;46.25;37.75;;;;;;;;5022034;28;28568;-78
2024/01/12 11:40:11;;;;;;;;;41.00;34.00;;;;;;;;5038903;28;28422;-78
2024/01/12 11:42:37;;;;;;;;;43.25;37.00;;;;;;;;5035500;28;29035;-78
2024/01/12 11:45:07;;;;;;;;;44.50;36.00;;;;;;;;5042662;28;29018;-76
2024/01/12 11:47:32;;;;;;;;;36.00;31.25;;;;;;;;5037470;28;29376;-76
2024/01/12 11:49:57;;;;;;;;;42.00;35.00;;;;;;;;5042045;28;29094;-79
2024/01/12 11:52:23;;;;;;;;;48.75;36.00;;;;;;;;5043131;28;28577;-78
2024/01/12 11:54:48;;;;;;;;;38.75;34.50;;;;;;;;5045123;28;28687;-80
2024/01/12 11:57:13;;;;;;;;;36.25;31.00;;;;;;;;5049172;28;28898;-79
2024/01/12 11:59:38;;;;;;;;;34.25;26.00;;;;;;;;5026084;28;28651;-79
2024/01/12 12:02:04;;;;;;;;;37.25;29.75;;;;;;;;5028360;28;28973;-79
2024/01/12 12:04:30;;;;;;;;;42.25;33.75;;;;;;;;5042893;28;28382;-81
2024/01/12 12:06:55;;;;;;;;;38.50;32.75;;;;;;;;5035867;28;28751;-78
2024/01/12 12:09:21;;;;;;;;;36.50;32.25;;;;;;;;5044335;28;29816;-80
2024/01/12 12:11:48;;;;;;;;;31.75;30.50;;;;;;;;5040297;28;28580;-80
2024/01/12 12:14:13;;;;;;;;;49.75;38.25;;;;;;;;5025515;28;28738;-82
2024/01/12 12:16:38;;;;;;;;;45.00;36.00;;;;;;;;5043751;28;28874;-83
2024/01/12 12:19:04;;;;;;;;;45.50;34.00;;;;;;;;5030938;28;28369;-83
2024/01/12 12:21:30;;;;;;;;;40.25;31.75;;;;;;;;5033160;28;28116;-82
2024/01/12 12:23:55;;;;;;;;;51.00;38.75;;;;;;;;5032045;28;28719;-82
2024/01/12 12:26:21;;;;;;;;;38.25;34.00;;;;;;;;5037406;28;29169;-82
2024/01/12 12:28:47;;;;;;;;;43.50;36.75;;;;;;;;5040826;28;29880;-82
2024/01/12 12:31:12;;;;;;;;;42.00;32.75;;;;;;;;5034738;28;28605;-83
2024/01/12 12:33:42;;;;;;;;;29.75;23.25;;;;;;;;5040697;28;28544;-80
2024/01/12 12:36:07;;;;;;;;;41.75;31.25;;;;;;;;5027838;28;30737;-78
2024/01/12 12:38:33;;;;;;;;;49.25;36.50;;;;;;;;5033335;28;28544;-79
2024/01/12 12:40:58;;;;;;;;;44.50;34.00;;;;;;;;5035416;28;28525;-77
2024/01/12 12:43:24;;;;;;;;;42.25;36.00;;;;;;;;5033301;28;28033;-77
2024/01/12 12:45:53;;;;;;;;;46.75;37.25;;;;;;;;5032755;28;28865;-78
2024/01/12 12:48:18;;;;;;;;;44.50;36.00;;;;;;;;5030999;28;28979;-81
2024/01/12 12:50:43;;;;;;;;;37.75;31.75;;;;;;;;5040679;28;28574;-78
2024/01/12 12:53:11;;;;;;;;;47.75;37.00;;;;;;;;5032883;28;29951;-78
2024/01/12 12:55:37;;;;;;;;;54.75;38.50;;;;;;;;5032740;28;28636;-78
2024/01/12 12:58:02;;;;;;;;;46.25;39.00;;;;;;;;5033944;28;30355;-81
2024/01/12 13:00:27;;;;;;;;;53.25;40.50;;;;;;;;5021752;28;28518;-80
2024/01/12 13:02:52;;;;;;;;;41.50;34.75;;;;;;;;5034731;28;28932;-80
2024/01/12 13:05:21;;;;;;;;;48.25;37.25;;;;;;;;5055320;28;29370;-79
2024/01/12 13:07:47;;;;;;;;;45.75;37.00;;;;;;;;5032336;28;28473;-80
2024/01/12 13:10:12;;;;;;;;;40.00;34.00;;;;;;;;5039469;28;28452;-80
2024/01/12 13:12:37;;;;;;;;;33.00;27.75;;;;;;;;5029396;28;28608;-80
2024/01/12 13:15:03;;;;;;;;;54.25;38.25;;;;;;;;5030405;28;28852;-79
2024/01/12 13:17:28;;;;;;;;;43.75;34.00;;;;;;;;5036374;28;28820;-79
2024/01/12 13:19:53;;;;;;;;;38.50;36.25;;;;;;;;5032359;28;29207;-80
2024/01/12 13:22:18;;;;;;;;;44.75;34.00;;;;;;;;5039716;28;28626;-80
2024/01/12 13:24:44;;;;;;;;;48.25;38.00;;;;;;;;5026580;28;28785;-77
2024/01/12 13:27:09;;;;;;;;;46.75;36.50;;;;;;;;5025105;28;28880;-77
2024/01/12 13:29:34;;;;;;;;;50.25;36.75;;;;;;;;5024242;28;28572;-79
2024/01/12 13:32:02;;;;;;;;;41.50;35.00;;;;;;;;5031938;28;29053;-79
2024/01/12 13:34:28;;;;;;;;;40.75;33.75;;;;;;;;5027708;28;28513;-80
2024/01/12 13:36:53;;;;;;;;;47.00;34.75;;;;;;;;5028754;28;28805;-79
2024/01/12 13:39:18;;;;;;;;;47.00;39.25;;;;;;;;5033328;28;28480;-80
2024/01/12 13:41:44;;;;;;;;;41.25;36.00;;;;;;;;5038333;28;28739;-80
2024/01/12 13:44:09;;;;;;;;;42.75;36.75;;;;;;;;5030196;28;28589;-81
2024/01/12 13:46:34;;;;;;;;;41.25;35.75;;;;;;;;5018906;28;28715;-80
2024/01/12 13:48:59;;;;;;;;;46.00;34.50;;;;;;;;5016993;28;28944;-81
2024/01/12 13:51:25;;;;;;;;;44.00;33.50;;;;;;;;5038548;28;28558;-80
2024/01/12 13:53:50;;;;;;;;;47.25;34.25;;;;;;;;5033808;28;28584;-80
2024/01/12 13:56:16;;;;;;;;;52.50;37.00;;;;;;;;5042696;28;29722;-81
2024/01/12 13:58:41;;;;;;;;;50.75;38.50;;;;;;;;5036849;28;28481;-80
2024/01/12 14:01:11;;;;;;;;;46.00;37.75;;;;;;;;5035839;28;28476;-79
2024/01/12 14:03:36;;;;;;;;;41.50;36.25;;;;;;;;5028939;28;28685;-80
2024/01/12 14:06:01;;;;;;;;;49.75;38.50;;;;;;;;5040997;28;28534;-80